sensor_id;sensor_type;location;lat;lon;timestamp;P1;durP1;ratioP1;P2;durP2;ratioP2
27127;SDS011;14660;49.008;8.390;2023-02-15T00:00:08;37.97;;;20.95;;
27127;SDS011;14660;49.008;8.390;2023-02-15T00:02:37;42.05;;;21.02;;
27127;SDS011;14660;49.008;8.390;2023-02-15T00:05:04;40.33;;;21.50;;
27127;SDS011;14660;49.008;8.390;2023-02-15T00:07:31;42.70;;;20.70;;
27127;SDS011;14660;49.008;8.390;2023-02-15T00:09:59;42.67;;;20.10;;
27127;SDS011;14660;49.008;8.390;2023-02-15T00:12:27;47.85;;;22.67;;
27127;SDS011;14660;49.008;8.390;2023-02-15T00:14:55;40.08;;;21.20;;
27127;SDS011;14660;49.008;8.390;2023-02-15T00:17:22;76.95;;;25.85;;
27127;SDS011;14660;49.008;8.390;2023-02-15T00:19:50;42.00;;;21.65;;
27127;SDS011;14660;49.008;8.390;2023-02-15T00:22:18;46.90;;;22.88;;
27127;SDS011;14660;49.008;8.390;2023-02-15T00:24:45;44.45;;;22.27;;
27127;SDS011;14660;49.008;8.390;2023-02-15T00:27:12;44.50;;;22.05;;
27127;SDS011;14660;49.008;8.390;2023-02-15T00:29:39;52.00;;;25.33;;
27127;SDS011;14660;49.008;8.390;2023-02-15T00:32:06;55.38;;;22.70;;
27127;SDS011;14660;49.008;8.390;2023-02-15T00:34:36;50.00;;;23.17;;
27127;SDS011;14660;49.008;8.390;2023-02-15T00:37:03;43.83;;;23.90;;
27127;SDS011;14660;49.008;8.390;2023-02-15T00:39:30;51.22;;;23.15;;
27127;SDS011;14660;49.008;8.390;2023-02-15T00:41:57;44.70;;;20.88;;
27127;SDS011;14660;49.008;8.390;2023-02-15T00:44:24;37.50;;;21.25;;
27127;SDS011;14660;49.008;8.390;2023-02-15T00:46:51;45.92;;;22.13;;
27127;SDS011;14660;49.008;8.390;2023-02-15T00:49:19;40.97;;;20.20;;
27127;SDS011;14660;49.008;8.390;2023-02-15T00:51:49;45.85;;;21.70;;
27127;SDS011;14660;49.008;8.390;2023-02-15T00:54:17;43.20;;;21.55;;
27127;SDS011;14660;49.008;8.390;2023-02-15T00:56:45;43.60;;;22.33;;
27127;SDS011;14660;49.008;8.390;2023-02-15T00:59:12;45.25;;;22.55;;
27127;SDS011;14660;49.008;8.390;2023-02-15T01:01:39;42.63;;;21.60;;
27127;SDS011;14660;49.008;8.390;2023-02-15T01:04:06;40.03;;;21.27;;
27127;SDS011;14660;49.008;8.390;2023-02-15T01:06:33;49.42;;;22.13;;
27127;SDS011;14660;49.008;8.390;2023-02-15T01:09:00;42.50;;;22.63;;
27127;SDS011;14660;49.008;8.390;2023-02-15T01:11:26;39.22;;;21.80;;
27127;SDS011;14660;49.008;8.390;2023-02-15T01:13:56;40.30;;;20.00;;
27127;SDS011;14660;49.008;8.390;2023-02-15T01:16:25;42.58;;;22.45;;
27127;SDS011;14660;49.008;8.390;2023-02-15T01:18:56;38.33;;;19.20;;
27127;SDS011;14660;49.008;8.390;2023-02-15T01:21:25;40.45;;;19.42;;
27127;SDS011;14660;49.008;8.390;2023-02-15T01:23:52;42.65;;;19.88;;
27127;SDS011;14660;49.008;8.390;2023-02-15T01:26:22;38.58;;;19.20;;
27127;SDS011;14660;49.008;8.390;2023-02-15T01:28:49;41.03;;;20.75;;
27127;SDS011;14660;49.008;8.390;2023-02-15T01:31:17;42.40;;;20.50;;
27127;SDS011;14660;49.008;8.390;2023-02-15T01:33:44;33.58;;;17.58;;
27127;SDS011;14660;49.008;8.390;2023-02-15T01:36:12;41.28;;;18.88;;
27127;SDS011;14660;49.008;8.390;2023-02-15T01:38:39;44.47;;;20.85;;
27127;SDS011;14660;49.008;8.390;2023-02-15T01:41:06;40.80;;;20.23;;
27127;SDS011;14660;49.008;8.390;2023-02-15T01:46:56;34.63;;;17.10;;
27127;SDS011;14660;49.008;8.390;2023-02-15T01:49:23;33.17;;;17.55;;
27127;SDS011;14660;49.008;8.390;2023-02-15T01:51:52;42.50;;;18.88;;
27127;SDS011;14660;49.008;8.390;2023-02-15T01:56:58;35.67;;;16.63;;
27127;SDS011;14660;49.008;8.390;2023-02-15T01:59:31;33.60;;;16.90;;
27127;SDS011;14660;49.008;8.390;2023-02-15T02:01:59;36.20;;;18.52;;
27127;SDS011;14660;49.008;8.390;2023-02-15T02:07:23;31.85;;;16.92;;
27127;SDS011;14660;49.008;8.390;2023-02-15T02:09:51;40.17;;;18.00;;
27127;SDS011;14660;49.008;8.390;2023-02-15T02:12:17;28.27;;;15.95;;
27127;SDS011;14660;49.008;8.390;2023-02-15T02:14:47;33.42;;;16.95;;
27127;SDS011;14660;49.008;8.390;2023-02-15T02:17:51;33.17;;;16.90;;
27127;SDS011;14660;49.008;8.390;2023-02-15T02:50:25;31.63;;;17.38;;
27127;SDS011;14660;49.008;8.390;2023-02-15T02:52:54;33.30;;;17.08;;
27127;SDS011;14660;49.008;8.390;2023-02-15T03:04:04;30.98;;;15.50;;
27127;SDS011;14660;49.008;8.390;2023-02-15T03:09:31;31.15;;;15.73;;
27127;SDS011;14660;49.008;8.390;2023-02-15T03:17:51;34.80;;;16.92;;
27127;SDS011;14660;49.008;8.390;2023-02-15T03:20:29;39.03;;;17.60;;
27127;SDS011;14660;49.008;8.390;2023-02-15T03:23:01;34.20;;;17.63;;
27127;SDS011;14660;49.008;8.390;2023-02-15T03:25:44;33.22;;;17.45;;
27127;SDS011;14660;49.008;8.390;2023-02-15T03:28:18;35.05;;;17.75;;
27127;SDS011;14660;49.008;8.390;2023-02-15T03:30:51;35.05;;;15.98;;
27127;SDS011;14660;49.008;8.390;2023-02-15T03:33:22;31.45;;;15.60;;
27127;SDS011;14660;49.008;8.390;2023-02-15T03:42:25;37.45;;;18.27;;
27127;SDS011;14660;49.008;8.390;2023-02-15T03:47:44;30.80;;;15.98;;
27127;SDS011;14660;49.008;8.390;2023-02-15T03:50:17;30.77;;;16.45;;
27127;SDS011;14660;49.008;8.390;2023-02-15T03:53:06;34.75;;;16.30;;
27127;SDS011;14660;49.008;8.390;2023-02-15T03:55:36;34.03;;;16.10;;
27127;SDS011;14660;49.008;8.390;2023-02-15T03:58:03;30.77;;;16.08;;
27127;SDS011;14660;49.008;8.390;2023-02-15T04:00:57;36.63;;;17.25;;
27127;SDS011;14660;49.008;8.390;2023-02-15T04:04:02;37.22;;;18.33;;
27127;SDS011;14660;49.008;8.390;2023-02-15T04:06:37;29.35;;;14.57;;
27127;SDS011;14660;49.008;8.390;2023-02-15T04:09:04;35.40;;;17.23;;
27127;SDS011;14660;49.008;8.390;2023-02-15T04:11:50;34.47;;;17.52;;
27127;SDS011;14660;49.008;8.390;2023-02-15T04:14:18;30.35;;;16.10;;
27127;SDS011;14660;49.008;8.390;2023-02-15T04:17:07;34.28;;;17.45;;
27127;SDS011;14660;49.008;8.390;2023-02-15T04:19:34;30.58;;;15.45;;
27127;SDS011;14660;49.008;8.390;2023-02-15T04:22:20;26.48;;;16.02;;
27127;SDS011;14660;49.008;8.390;2023-02-15T04:25:05;30.52;;;16.50;;
27127;SDS011;14660;49.008;8.390;2023-02-15T04:27:41;34.83;;;15.88;;
27127;SDS011;14660;49.008;8.390;2023-02-15T04:30:08;36.42;;;16.77;;
27127;SDS011;14660;49.008;8.390;2023-02-15T04:32:36;33.67;;;16.83;;
27127;SDS011;14660;49.008;8.390;2023-02-15T04:35:04;34.80;;;16.65;;
27127;SDS011;14660;49.008;8.390;2023-02-15T04:37:32;31.52;;;16.33;;
27127;SDS011;14660;49.008;8.390;2023-02-15T04:39:58;39.30;;;17.65;;
27127;SDS011;14660;49.008;8.390;2023-02-15T04:42:25;32.38;;;16.27;;
27127;SDS011;14660;49.008;8.390;2023-02-15T04:44:52;30.65;;;18.02;;
27127;SDS011;14660;49.008;8.390;2023-02-15T04:47:19;34.60;;;18.17;;
27127;SDS011;14660;49.008;8.390;2023-02-15T04:49:46;36.20;;;17.25;;
27127;SDS011;14660;49.008;8.390;2023-02-15T04:52:13;33.30;;;16.65;;
27127;SDS011;14660;49.008;8.390;2023-02-15T04:54:42;34.55;;;16.13;;
27127;SDS011;14660;49.008;8.390;2023-02-15T04:57:10;33.13;;;14.48;;
27127;SDS011;14660;49.008;8.390;2023-02-15T04:59:37;29.30;;;16.08;;
27127;SDS011;14660;49.008;8.390;2023-02-15T05:02:05;33.72;;;16.42;;
27127;SDS011;14660;49.008;8.390;2023-02-15T05:04:33;33.08;;;16.42;;
27127;SDS011;14660;49.008;8.390;2023-02-15T05:07:00;30.05;;;14.25;;
27127;SDS011;14660;49.008;8.390;2023-02-15T05:09:26;27.80;;;15.02;;
27127;SDS011;14660;49.008;8.390;2023-02-15T05:11:53;29.27;;;15.50;;
27127;SDS011;14660;49.008;8.390;2023-02-15T05:14:20;28.27;;;16.08;;
27127;SDS011;14660;49.008;8.390;2023-02-15T05:16:49;28.98;;;15.73;;
27127;SDS011;14660;49.008;8.390;2023-02-15T05:19:16;27.08;;;14.90;;
27127;SDS011;14660;49.008;8.390;2023-02-15T05:21:42;30.90;;;16.17;;
27127;SDS011;14660;49.008;8.390;2023-02-15T05:24:09;33.97;;;16.73;;
27127;SDS011;14660;49.008;8.390;2023-02-15T05:26:55;29.48;;;15.35;;
27127;SDS011;14660;49.008;8.390;2023-02-15T05:29:42;31.33;;;19.02;;
27127;SDS011;14660;49.008;8.390;2023-02-15T05:32:11;27.02;;;14.82;;
27127;SDS011;14660;49.008;8.390;2023-02-15T05:34:39;30.10;;;15.57;;
27127;SDS011;14660;49.008;8.390;2023-02-15T05:37:05;31.10;;;16.08;;
27127;SDS011;14660;49.008;8.390;2023-02-15T05:39:34;31.17;;;16.27;;
27127;SDS011;14660;49.008;8.390;2023-02-15T05:42:02;32.67;;;17.63;;
27127;SDS011;14660;49.008;8.390;2023-02-15T05:44:30;37.58;;;17.00;;
27127;SDS011;14660;49.008;8.390;2023-02-15T05:46:56;30.40;;;16.35;;
27127;SDS011;14660;49.008;8.390;2023-02-15T05:49:22;30.00;;;14.70;;
27127;SDS011;14660;49.008;8.390;2023-02-15T05:51:51;30.45;;;14.73;;
27127;SDS011;14660;49.008;8.390;2023-02-15T05:54:17;33.75;;;17.40;;
27127;SDS011;14660;49.008;8.390;2023-02-15T05:56:44;30.92;;;16.88;;
27127;SDS011;14660;49.008;8.390;2023-02-15T05:59:11;34.53;;;19.13;;
27127;SDS011;14660;49.008;8.390;2023-02-15T06:01:39;32.20;;;17.17;;
27127;SDS011;14660;49.008;8.390;2023-02-15T06:04:07;34.80;;;17.02;;
27127;SDS011;14660;49.008;8.390;2023-02-15T06:06:34;29.30;;;17.52;;
27127;SDS011;14660;49.008;8.390;2023-02-15T06:09:02;31.75;;;15.55;;
27127;SDS011;14660;49.008;8.390;2023-02-15T06:11:29;36.47;;;16.80;;
27127;SDS011;14660;49.008;8.390;2023-02-15T06:13:56;30.75;;;17.30;;
27127;SDS011;14660;49.008;8.390;2023-02-15T06:16:22;38.00;;;16.98;;
27127;SDS011;14660;49.008;8.390;2023-02-15T06:18:48;32.85;;;15.20;;
27127;SDS011;14660;49.008;8.390;2023-02-15T06:21:16;30.15;;;15.60;;
27127;SDS011;14660;49.008;8.390;2023-02-15T06:23:43;30.17;;;15.75;;
27127;SDS011;14660;49.008;8.390;2023-02-15T06:26:10;33.50;;;15.45;;
27127;SDS011;14660;49.008;8.390;2023-02-15T06:28:36;28.42;;;14.20;;
27127;SDS011;14660;49.008;8.390;2023-02-15T06:31:02;29.27;;;13.60;;
27127;SDS011;14660;49.008;8.390;2023-02-15T06:33:28;31.17;;;13.13;;
27127;SDS011;14660;49.008;8.390;2023-02-15T06:35:56;23.92;;;13.95;;
27127;SDS011;14660;49.008;8.390;2023-02-15T06:38:23;22.75;;;13.48;;
27127;SDS011;14660;49.008;8.390;2023-02-15T06:40:49;27.88;;;13.52;;
27127;SDS011;14660;49.008;8.390;2023-02-15T06:43:17;38.15;;;21.02;;
27127;SDS011;14660;49.008;8.390;2023-02-15T06:45:45;29.85;;;15.35;;
27127;SDS011;14660;49.008;8.390;2023-02-15T06:48:12;37.47;;;17.90;;
27127;SDS011;14660;49.008;8.390;2023-02-15T06:50:40;31.58;;;15.93;;
27127;SDS011;14660;49.008;8.390;2023-02-15T06:53:06;25.58;;;13.57;;
27127;SDS011;14660;49.008;8.390;2023-02-15T06:55:34;28.48;;;14.50;;
27127;SDS011;14660;49.008;8.390;2023-02-15T06:58:01;25.05;;;14.18;;
27127;SDS011;14660;49.008;8.390;2023-02-15T07:00:27;25.65;;;14.65;;
27127;SDS011;14660;49.008;8.390;2023-02-15T07:02:54;28.45;;;14.70;;
27127;SDS011;14660;49.008;8.390;2023-02-15T07:05:22;26.92;;;13.73;;
27127;SDS011;14660;49.008;8.390;2023-02-15T07:07:49;26.27;;;13.18;;
27127;SDS011;14660;49.008;8.390;2023-02-15T07:10:18;25.23;;;12.45;;
27127;SDS011;14660;49.008;8.390;2023-02-15T07:12:46;24.10;;;13.75;;
27127;SDS011;14660;49.008;8.390;2023-02-15T07:15:15;23.75;;;13.40;;
27127;SDS011;14660;49.008;8.390;2023-02-15T07:17:48;35.03;;;14.45;;
27127;SDS011;14660;49.008;8.390;2023-02-15T07:20:19;30.77;;;14.88;;
27127;SDS011;14660;49.008;8.390;2023-02-15T07:22:47;32.75;;;15.80;;
27127;SDS011;14660;49.008;8.390;2023-02-15T07:25:17;30.23;;;13.95;;
27127;SDS011;14660;49.008;8.390;2023-02-15T07:27:44;31.67;;;16.33;;
27127;SDS011;14660;49.008;8.390;2023-02-15T07:30:14;26.25;;;15.43;;
27127;SDS011;14660;49.008;8.390;2023-02-15T07:32:42;33.42;;;15.88;;
27127;SDS011;14660;49.008;8.390;2023-02-15T07:35:28;32.83;;;15.25;;
27127;SDS011;14660;49.008;8.390;2023-02-15T07:37:55;33.72;;;17.08;;
27127;SDS011;14660;49.008;8.390;2023-02-15T07:40:22;30.05;;;15.43;;
27127;SDS011;14660;49.008;8.390;2023-02-15T07:42:48;33.88;;;16.40;;
27127;SDS011;14660;49.008;8.390;2023-02-15T07:45:19;29.27;;;16.38;;
27127;SDS011;14660;49.008;8.390;2023-02-15T07:47:46;32.33;;;15.93;;
27127;SDS011;14660;49.008;8.390;2023-02-15T07:50:14;37.50;;;17.48;;
27127;SDS011;14660;49.008;8.390;2023-02-15T07:52:40;37.33;;;17.98;;
27127;SDS011;14660;49.008;8.390;2023-02-15T07:55:07;32.83;;;16.90;;
27127;SDS011;14660;49.008;8.390;2023-02-15T07:57:33;38.08;;;16.35;;
27127;SDS011;14660;49.008;8.390;2023-02-15T08:00:00;32.75;;;16.48;;
27127;SDS011;14660;49.008;8.390;2023-02-15T08:02:39;36.35;;;17.25;;
27127;SDS011;14660;49.008;8.390;2023-02-15T08:05:06;39.28;;;17.35;;
27127;SDS011;14660;49.008;8.390;2023-02-15T08:07:33;37.80;;;17.65;;
27127;SDS011;14660;49.008;8.390;2023-02-15T08:10:01;30.90;;;16.45;;
27127;SDS011;14660;49.008;8.390;2023-02-15T08:12:28;36.47;;;18.95;;
27127;SDS011;14660;49.008;8.390;2023-02-15T08:14:56;25.17;;;14.63;;
27127;SDS011;14660;49.008;8.390;2023-02-15T08:17:21;28.48;;;16.42;;
27127;SDS011;14660;49.008;8.390;2023-02-15T08:19:49;27.77;;;12.85;;
27127;SDS011;14660;49.008;8.390;2023-02-15T08:22:16;25.05;;;12.57;;
27127;SDS011;14660;49.008;8.390;2023-02-15T08:24:42;27.85;;;14.13;;
27127;SDS011;14660;49.008;8.390;2023-02-15T08:27:10;20.52;;;11.15;;
27127;SDS011;14660;49.008;8.390;2023-02-15T08:29:38;29.50;;;14.80;;
27127;SDS011;14660;49.008;8.390;2023-02-15T08:32:09;29.23;;;13.07;;
27127;SDS011;14660;49.008;8.390;2023-02-15T08:34:39;28.17;;;13.77;;
27127;SDS011;14660;49.008;8.390;2023-02-15T08:37:07;28.33;;;13.20;;
27127;SDS011;14660;49.008;8.390;2023-02-15T08:39:33;23.90;;;13.45;;
27127;SDS011;14660;49.008;8.390;2023-02-15T08:42:01;28.80;;;13.95;;
27127;SDS011;14660;49.008;8.390;2023-02-15T08:44:28;29.50;;;13.68;;
27127;SDS011;14660;49.008;8.390;2023-02-15T08:46:56;28.92;;;14.23;;
27127;SDS011;14660;49.008;8.390;2023-02-15T08:49:29;27.58;;;14.68;;
27127;SDS011;14660;49.008;8.390;2023-02-15T08:51:58;24.48;;;13.30;;
27127;SDS011;14660;49.008;8.390;2023-02-15T08:54:25;32.20;;;14.38;;
27127;SDS011;14660;49.008;8.390;2023-02-15T08:56:52;25.73;;;13.68;;
27127;SDS011;14660;49.008;8.390;2023-02-15T08:59:22;29.98;;;13.88;;
27127;SDS011;14660;49.008;8.390;2023-02-15T09:01:50;26.38;;;12.85;;
27127;SDS011;14660;49.008;8.390;2023-02-15T09:04:18;34.15;;;14.65;;
27127;SDS011;14660;49.008;8.390;2023-02-15T09:06:46;28.55;;;14.10;;
27127;SDS011;14660;49.008;8.390;2023-02-15T09:09:14;30.92;;;15.90;;
27127;SDS011;14660;49.008;8.390;2023-02-15T09:11:42;29.58;;;15.05;;
27127;SDS011;14660;49.008;8.390;2023-02-15T09:14:12;28.40;;;12.77;;
27127;SDS011;14660;49.008;8.390;2023-02-15T09:16:42;36.05;;;15.32;;
27127;SDS011;14660;49.008;8.390;2023-02-15T09:19:14;32.47;;;14.68;;
27127;SDS011;14660;49.008;8.390;2023-02-15T09:21:44;26.85;;;14.07;;
27127;SDS011;14660;49.008;8.390;2023-02-15T09:24:11;32.85;;;15.50;;
27127;SDS011;14660;49.008;8.390;2023-02-15T09:26:41;32.40;;;16.48;;
27127;SDS011;14660;49.008;8.390;2023-02-15T09:29:11;31.63;;;15.27;;
27127;SDS011;14660;49.008;8.390;2023-02-15T09:31:42;28.38;;;15.93;;
27127;SDS011;14660;49.008;8.390;2023-02-15T09:34:11;39.58;;;17.25;;
27127;SDS011;14660;49.008;8.390;2023-02-15T09:36:39;38.05;;;19.42;;
27127;SDS011;14660;49.008;8.390;2023-02-15T09:56:55;65.38;;;28.88;;
27127;SDS011;14660;49.008;8.390;2023-02-15T10:14:49;33.30;;;18.77;;
27127;SDS011;14660;49.008;8.390;2023-02-15T10:26:46;40.80;;;22.67;;
27127;SDS011;14660;49.008;8.390;2023-02-15T10:32:26;38.75;;;18.63;;
27127;SDS011;14660;49.008;8.390;2023-02-15T10:53:55;36.10;;;16.63;;
27127;SDS011;14660;49.008;8.390;2023-02-15T11:08:43;33.00;;;17.58;;
27127;SDS011;14660;49.008;8.390;2023-02-15T11:11:15;26.75;;;14.85;;
27127;SDS011;14660;49.008;8.390;2023-02-15T11:14:01;34.47;;;16.77;;
27127;SDS011;14660;49.008;8.390;2023-02-15T11:16:36;31.95;;;15.77;;
27127;SDS011;14660;49.008;8.390;2023-02-15T11:19:26;32.88;;;16.70;;
27127;SDS011;14660;49.008;8.390;2023-02-15T11:21:59;31.73;;;16.08;;
27127;SDS011;14660;49.008;8.390;2023-02-15T11:29:59;36.22;;;16.45;;
27127;SDS011;14660;49.008;8.390;2023-02-15T11:32:46;34.42;;;16.00;;
27127;SDS011;14660;49.008;8.390;2023-02-15T11:35:22;27.52;;;15.80;;
27127;SDS011;14660;49.008;8.390;2023-02-15T11:38:24;38.53;;;17.17;;
27127;SDS011;14660;49.008;8.390;2023-02-15T11:41:00;28.25;;;15.57;;
27127;SDS011;14660;49.008;8.390;2023-02-15T11:44:05;34.22;;;17.10;;
27127;SDS011;14660;49.008;8.390;2023-02-15T11:46:39;34.17;;;17.90;;
27127;SDS011;14660;49.008;8.390;2023-02-15T11:49:12;31.45;;;16.48;;
27127;SDS011;14660;49.008;8.390;2023-02-15T11:52:13;34.25;;;18.38;;
27127;SDS011;14660;49.008;8.390;2023-02-15T11:54:43;31.23;;;15.65;;
27127;SDS011;14660;49.008;8.390;2023-02-15T12:02:36;31.35;;;16.77;;
27127;SDS011;14660;49.008;8.390;2023-02-15T12:05:10;30.52;;;15.82;;
27127;SDS011;14660;49.008;8.390;2023-02-15T12:07:46;29.90;;;16.23;;
27127;SDS011;14660;49.008;8.390;2023-02-15T12:10:40;30.38;;;15.35;;
27127;SDS011;14660;49.008;8.390;2023-02-15T12:13:25;29.48;;;14.35;;
27127;SDS011;14660;49.008;8.390;2023-02-15T12:15:54;29.00;;;15.23;;
27127;SDS011;14660;49.008;8.390;2023-02-15T12:18:41;30.92;;;15.15;;
27127;SDS011;14660;49.008;8.390;2023-02-15T12:24:18;29.20;;;15.80;;
27127;SDS011;14660;49.008;8.390;2023-02-15T12:27:01;31.63;;;16.92;;
27127;SDS011;14660;49.008;8.390;2023-02-15T12:29:41;27.13;;;16.13;;
27127;SDS011;14660;49.008;8.390;2023-02-15T12:32:20;32.20;;;15.93;;
27127;SDS011;14660;49.008;8.390;2023-02-15T12:34:51;30.17;;;15.45;;
27127;SDS011;14660;49.008;8.390;2023-02-15T12:37:25;27.25;;;15.00;;
27127;SDS011;14660;49.008;8.390;2023-02-15T12:40:04;31.42;;;16.67;;
27127;SDS011;14660;49.008;8.390;2023-02-15T12:42:52;33.55;;;16.15;;
27127;SDS011;14660;49.008;8.390;2023-02-15T12:45:25;27.48;;;14.57;;
27127;SDS011;14660;49.008;8.390;2023-02-15T12:48:27;29.02;;;16.30;;
27127;SDS011;14660;49.008;8.390;2023-02-15T12:50:49;29.80;;;14.57;;
27127;SDS011;14660;49.008;8.390;2023-02-15T12:56:07;37.92;;;18.13;;
27127;SDS011;14660;49.008;8.390;2023-02-15T12:58:39;26.37;;;14.10;;
27127;SDS011;14660;49.008;8.390;2023-02-15T13:01:10;32.22;;;15.18;;
27127;SDS011;14660;49.008;8.390;2023-02-15T13:06:27;27.25;;;14.90;;
27127;SDS011;14660;49.008;8.390;2023-02-15T13:08:58;32.70;;;16.98;;
27127;SDS011;14660;49.008;8.390;2023-02-15T13:11:39;32.58;;;17.73;;
27127;SDS011;14660;49.008;8.390;2023-02-15T13:17:00;31.88;;;15.80;;
27127;SDS011;14660;49.008;8.390;2023-02-15T13:22:38;29.98;;;16.50;;
27127;SDS011;14660;49.008;8.390;2023-02-15T13:25:13;32.10;;;16.52;;
27127;SDS011;14660;49.008;8.390;2023-02-15T13:27:51;32.33;;;17.52;;
27127;SDS011;14660;49.008;8.390;2023-02-15T13:30:23;27.67;;;16.95;;
27127;SDS011;14660;49.008;8.390;2023-02-15T13:32:52;30.02;;;15.90;;
27127;SDS011;14660;49.008;8.390;2023-02-15T14:15:08;36.85;;;18.73;;
27127;SDS011;14660;49.008;8.390;2023-02-15T14:26:49;35.47;;;19.00;;
27127;SDS011;14660;49.008;8.390;2023-02-15T14:35:37;36.08;;;19.73;;
27127;SDS011;14660;49.008;8.390;2023-02-15T14:41:18;33.60;;;18.23;;
27127;SDS011;14660;49.008;8.390;2023-02-15T14:47:15;38.33;;;20.10;;
27127;SDS011;14660;49.008;8.390;2023-02-15T14:49:51;42.60;;;20.27;;
27127;SDS011;14660;49.008;8.390;2023-02-15T14:52:18;40.80;;;20.50;;
27127;SDS011;14660;49.008;8.390;2023-02-15T14:57:32;35.20;;;19.42;;
27127;SDS011;14660;49.008;8.390;2023-02-15T15:00:00;43.97;;;20.33;;
27127;SDS011;14660;49.008;8.390;2023-02-15T15:08:25;42.70;;;21.10;;
27127;SDS011;14660;49.008;8.390;2023-02-15T15:10:57;35.90;;;19.85;;
27127;SDS011;14660;49.008;8.390;2023-02-15T15:14:03;46.60;;;21.45;;
27127;SDS011;14660;49.008;8.390;2023-02-15T15:19:56;35.65;;;19.83;;
27127;SDS011;14660;49.008;8.390;2023-02-15T15:22:24;36.30;;;19.98;;
27127;SDS011;14660;49.008;8.390;2023-02-15T15:27:56;38.42;;;20.92;;
27127;SDS011;14660;49.008;8.390;2023-02-15T15:45:30;39.47;;;19.58;;
27127;SDS011;14660;49.008;8.390;2023-02-15T15:48:42;41.50;;;21.38;;
27127;SDS011;14660;49.008;8.390;2023-02-15T15:53:58;42.63;;;21.07;;
27127;SDS011;14660;49.008;8.390;2023-02-15T15:56:33;36.00;;;19.85;;
27127;SDS011;14660;49.008;8.390;2023-02-15T15:59:04;37.80;;;21.42;;
27127;SDS011;14660;49.008;8.390;2023-02-15T16:01:38;39.28;;;19.60;;
27127;SDS011;14660;49.008;8.390;2023-02-15T16:04:11;40.33;;;22.08;;
27127;SDS011;14660;49.008;8.390;2023-02-15T16:06:52;39.33;;;21.65;;
27127;SDS011;14660;49.008;8.390;2023-02-15T16:12:04;43.28;;;22.50;;
27127;SDS011;14660;49.008;8.390;2023-02-15T16:14:45;45.83;;;24.10;;
27127;SDS011;14660;49.008;8.390;2023-02-15T16:17:25;43.25;;;23.88;;
27127;SDS011;14660;49.008;8.390;2023-02-15T16:20:03;44.40;;;23.33;;
27127;SDS011;14660;49.008;8.390;2023-02-15T16:22:39;41.17;;;22.83;;
27127;SDS011;14660;49.008;8.390;2023-02-15T16:27:51;64.15;;;30.88;;
27127;SDS011;14660;49.008;8.390;2023-02-15T16:36:00;60.35;;;30.35;;
27127;SDS011;14660;49.008;8.390;2023-02-15T16:39:16;63.42;;;31.45;;
27127;SDS011;14660;49.008;8.390;2023-02-15T16:41:35;59.10;;;30.35;;
27127;SDS011;14660;49.008;8.390;2023-02-15T16:44:07;70.72;;;32.03;;
27127;SDS011;14660;49.008;8.390;2023-02-15T16:46:50;72.88;;;34.40;;
27127;SDS011;14660;49.008;8.390;2023-02-15T16:49:24;56.15;;;28.10;;
27127;SDS011;14660;49.008;8.390;2023-02-15T16:51:59;49.55;;;25.77;;
27127;SDS011;14660;49.008;8.390;2023-02-15T16:54:28;43.35;;;23.83;;
27127;SDS011;14660;49.008;8.390;2023-02-15T16:57:01;59.40;;;27.55;;
27127;SDS011;14660;49.008;8.390;2023-02-15T17:02:17;44.67;;;23.08;;
27127;SDS011;14660;49.008;8.390;2023-02-15T17:08:02;66.57;;;35.38;;
27127;SDS011;14660;49.008;8.390;2023-02-15T17:11:02;51.60;;;28.40;;
27127;SDS011;14660;49.008;8.390;2023-02-15T17:16:48;78.18;;;36.65;;
27127;SDS011;14660;49.008;8.390;2023-02-15T17:22:25;53.40;;;27.77;;
27127;SDS011;14660;49.008;8.390;2023-02-15T17:25:00;50.72;;;25.13;;
27127;SDS011;14660;49.008;8.390;2023-02-15T17:27:29;40.78;;;24.00;;
27127;SDS011;14660;49.008;8.390;2023-02-15T17:32:56;41.25;;;21.92;;
27127;SDS011;14660;49.008;8.390;2023-02-15T17:38:35;44.50;;;23.35;;
27127;SDS011;14660;49.008;8.390;2023-02-15T17:41:04;45.17;;;23.77;;
27127;SDS011;14660;49.008;8.390;2023-02-15T17:43:31;42.45;;;22.83;;
27127;SDS011;14660;49.008;8.390;2023-02-15T17:45:58;41.83;;;20.50;;
27127;SDS011;14660;49.008;8.390;2023-02-15T17:51:13;38.88;;;22.10;;
27127;SDS011;14660;49.008;8.390;2023-02-15T17:53:42;35.17;;;20.35;;
27127;SDS011;14660;49.008;8.390;2023-02-15T17:56:28;33.55;;;19.67;;
27127;SDS011;14660;49.008;8.390;2023-02-15T17:58:53;40.58;;;20.98;;
27127;SDS011;14660;49.008;8.390;2023-02-15T18:01:20;35.47;;;18.95;;
27127;SDS011;14660;49.008;8.390;2023-02-15T18:04:10;36.75;;;19.30;;
27127;SDS011;14660;49.008;8.390;2023-02-15T18:06:57;38.83;;;20.67;;
27127;SDS011;14660;49.008;8.390;2023-02-15T18:09:43;33.80;;;20.13;;
27127;SDS011;14660;49.008;8.390;2023-02-15T18:12:29;37.30;;;19.92;;
27127;SDS011;14660;49.008;8.390;2023-02-15T18:15:02;36.78;;;21.85;;
27127;SDS011;14660;49.008;8.390;2023-02-15T18:17:33;36.95;;;20.48;;
27127;SDS011;14660;49.008;8.390;2023-02-15T18:20:03;37.45;;;20.27;;
27127;SDS011;14660;49.008;8.390;2023-02-15T18:22:40;37.40;;;21.00;;
27127;SDS011;14660;49.008;8.390;2023-02-15T18:25:16;59.53;;;33.88;;
27127;SDS011;14660;49.008;8.390;2023-02-15T18:27:44;46.75;;;27.13;;
27127;SDS011;14660;49.008;8.390;2023-02-15T18:30:21;41.80;;;22.77;;
27127;SDS011;14660;49.008;8.390;2023-02-15T18:32:51;40.05;;;23.10;;
27127;SDS011;14660;49.008;8.390;2023-02-15T18:35:23;38.90;;;22.25;;
27127;SDS011;14660;49.008;8.390;2023-02-15T18:37:52;41.95;;;22.95;;
27127;SDS011;14660;49.008;8.390;2023-02-15T18:40:24;36.45;;;20.98;;
27127;SDS011;14660;49.008;8.390;2023-02-15T18:42:53;39.00;;;20.75;;
27127;SDS011;14660;49.008;8.390;2023-02-15T18:45:25;45.47;;;23.88;;
27127;SDS011;14660;49.008;8.390;2023-02-15T18:47:56;37.63;;;20.27;;
27127;SDS011;14660;49.008;8.390;2023-02-15T18:50:26;39.20;;;20.42;;
27127;SDS011;14660;49.008;8.390;2023-02-15T18:52:56;36.90;;;22.05;;
27127;SDS011;14660;49.008;8.390;2023-02-15T18:55:25;36.63;;;20.77;;
27127;SDS011;14660;49.008;8.390;2023-02-15T18:57:54;39.63;;;21.65;;
27127;SDS011;14660;49.008;8.390;2023-02-15T19:03:09;36.97;;;20.40;;
27127;SDS011;14660;49.008;8.390;2023-02-15T19:05:40;38.40;;;19.75;;
27127;SDS011;14660;49.008;8.390;2023-02-15T19:08:15;32.90;;;18.77;;
27127;SDS011;14660;49.008;8.390;2023-02-15T19:10:50;42.72;;;20.65;;
27127;SDS011;14660;49.008;8.390;2023-02-15T19:13:18;37.42;;;19.65;;
27127;SDS011;14660;49.008;8.390;2023-02-15T19:15:44;42.70;;;22.85;;
27127;SDS011;14660;49.008;8.390;2023-02-15T19:18:11;37.70;;;20.40;;
27127;SDS011;14660;49.008;8.390;2023-02-15T19:20:43;41.47;;;20.42;;
27127;SDS011;14660;49.008;8.390;2023-02-15T19:23:16;36.03;;;19.33;;
27127;SDS011;14660;49.008;8.390;2023-02-15T19:25:46;37.47;;;22.38;;
27127;SDS011;14660;49.008;8.390;2023-02-15T19:31:00;34.58;;;20.48;;
27127;SDS011;14660;49.008;8.390;2023-02-15T19:33:27;38.92;;;21.65;;
27127;SDS011;14660;49.008;8.390;2023-02-15T19:35:54;41.17;;;21.70;;
27127;SDS011;14660;49.008;8.390;2023-02-15T19:38:26;40.33;;;21.45;;
27127;SDS011;14660;49.008;8.390;2023-02-15T19:41:07;43.55;;;21.67;;
27127;SDS011;14660;49.008;8.390;2023-02-15T19:43:50;38.50;;;21.27;;
27127;SDS011;14660;49.008;8.390;2023-02-15T19:46:20;42.58;;;22.20;;